sensor_id;sensor_type;location;lat;lon;timestamp;temperature;humidity
46336;DHT22;31365;48.858;8.530;2023-04-01T00:15:43;9.40;99.90
46336;DHT22;31365;48.858;8.530;2023-04-01T00:18:13;9.40;99.90
46336;DHT22;31365;48.858;8.530;2023-04-01T00:20:44;9.50;99.90
46336;DHT22;31365;48.858;8.530;2023-04-01T00:23:14;9.50;99.90
46336;DHT22;31365;48.858;8.530;2023-04-01T00:25:44;9.50;99.90
46336;DHT22;31365;48.858;8.530;2023-04-01T00:28:15;9.60;99.90
46336;DHT22;31365;48.858;8.530;2023-04-01T00:30:45;9.60;99.90
46336;DHT22;31365;48.858;8.530;2023-04-01T00:33:15;9.60;99.90
46336;DHT22;31365;48.858;8.530;2023-04-01T00:35:45;9.60;99.90
46336;DHT22;31365;48.858;8.530;2023-04-01T00:38:14;9.60;99.90
46336;DHT22;31365;48.858;8.530;2023-04-01T00:40:45;9.50;99.90
46336;DHT22;31365;48.858;8.530;2023-04-01T00:43:17;9.50;99.90
46336;DHT22;31365;48.858;8.530;2023-04-01T00:45:49;9.50;99.90
46336;DHT22;31365;48.858;8.530;2023-04-01T00:48:22;9.50;99.90
46336;DHT22;31365;48.858;8.530;2023-04-01T00:50:56;9.40;99.90
46336;DHT22;31365;48.858;8.530;2023-04-01T00:53:30;9.40;99.90
46336;DHT22;31365;48.858;8.530;2023-04-01T00:56:04;9.40;99.90
46336;DHT22;31365;48.858;8.530;2023-04-01T00:58:39;9.40;99.90
46336;DHT22;31365;48.858;8.530;2023-04-01T01:01:14;9.40;99.90
46336;DHT22;31365;48.858;8.530;2023-04-01T01:03:44;9.40;99.90
46336;DHT22;31365;48.858;8.530;2023-04-01T01:06:30;9.30;99.90
46336;DHT22;31365;48.858;8.530;2023-04-01T01:09:20;9.40;99.90
46336;DHT22;31365;48.858;8.530;2023-04-01T01:12:05;9.40;99.90
46336;DHT22;31365;48.858;8.530;2023-04-01T01:14:50;9.40;99.90
46336;DHT22;31365;48.858;8.530;2023-04-01T01:17:37;9.40;99.90
46336;DHT22;31365;48.858;8.530;2023-04-01T01:20:42;9.40;99.90
46336;DHT22;31365;48.858;8.530;2023-04-01T01:23:50;9.40;99.90
46336;DHT22;31365;48.858;8.530;2023-04-01T01:26:50;9.40;99.90
46336;DHT22;31365;48.858;8.530;2023-04-01T01:29:39;9.40;99.90
46336;DHT22;31365;48.858;8.530;2023-04-01T01:32:23;9.40;99.90
46336;DHT22;31365;48.858;8.530;2023-04-01T01:35:16;9.40;99.90
46336;DHT22;31365;48.858;8.530;2023-04-01T01:37:54;9.40;99.90
46336;DHT22;31365;48.858;8.530;2023-04-01T01:40:27;9.30;99.90
46336;DHT22;31365;48.858;8.530;2023-04-01T01:43:03;9.30;99.90
46336;DHT22;31365;48.858;8.530;2023-04-01T01:45:36;9.30;99.90
46336;DHT22;31365;48.858;8.530;2023-04-01T01:48:11;9.30;99.90
46336;DHT22;31365;48.858;8.530;2023-04-01T01:50:43;9.30;99.90
46336;DHT22;31365;48.858;8.530;2023-04-01T01:53:19;9.20;99.90
46336;DHT22;31365;48.858;8.530;2023-04-01T01:55:48;9.30;99.90
46336;DHT22;31365;48.858;8.530;2023-04-01T01:58:22;9.20;99.90
46336;DHT22;31365;48.858;8.530;2023-04-01T02:00:59;9.30;99.90
46336;DHT22;31365;48.858;8.530;2023-04-01T02:03:33;9.30;99.90
46336;DHT22;31365;48.858;8.530;2023-04-01T02:06:08;9.30;99.90
46336;DHT22;31365;48.858;8.530;2023-04-01T02:08:42;9.30;99.90
46336;DHT22;31365;48.858;8.530;2023-04-01T02:11:17;9.30;99.90
46336;DHT22;31365;48.858;8.530;2023-04-01T02:13:53;9.20;99.90
46336;DHT22;31365;48.858;8.530;2023-04-01T02:16:28;9.20;99.90
46336;DHT22;31365;48.858;8.530;2023-04-01T02:19:03;9.10;99.90
46336;DHT22;31365;48.858;8.530;2023-04-01T02:21:38;8.90;99.90
46336;DHT22;31365;48.858;8.530;2023-04-01T02:24:12;8.80;99.90
46336;DHT22;31365;48.858;8.530;2023-04-01T02:26:44;8.80;99.90
46336;DHT22;31365;48.858;8.530;2023-04-01T02:29:15;8.70;99.90
46336;DHT22;31365;48.858;8.530;2023-04-01T02:31:47;8.70;99.90
46336;DHT22;31365;48.858;8.530;2023-04-01T02:34:18;8.60;99.90
46336;DHT22;31365;48.858;8.530;2023-04-01T02:36:50;8.60;99.90
46336;DHT22;31365;48.858;8.530;2023-04-01T02:39:20;8.60;99.90
46336;DHT22;31365;48.858;8.530;2023-04-01T02:41:52;8.60;99.90
46336;DHT22;31365;48.858;8.530;2023-04-01T02:44:22;8.70;99.90
46336;DHT22;31365;48.858;8.530;2023-04-01T02:46:52;8.70;99.90
46336;DHT22;31365;48.858;8.530;2023-04-01T02:49:22;8.70;99.90
46336;DHT22;31365;48.858;8.530;2023-04-01T02:51:53;8.80;99.90
46336;DHT22;31365;48.858;8.530;2023-04-01T02:54:23;8.70;99.90
46336;DHT22;31365;48.858;8.530;2023-04-01T02:56:52;8.70;99.90
46336;DHT22;31365;48.858;8.530;2023-04-01T02:59:22;8.80;99.90
46336;DHT22;31365;48.858;8.530;2023-04-01T03:01:52;8.70;99.90
46336;DHT22;31365;48.858;8.530;2023-04-01T03:04:20;8.70;99.90
46336;DHT22;31365;48.858;8.530;2023-04-01T03:06:50;8.60;99.90
46336;DHT22;31365;48.858;8.530;2023-04-01T03:09:22;8.60;99.90
46336;DHT22;31365;48.858;8.530;2023-04-01T03:11:52;8.50;99.90
46336;DHT22;31365;48.858;8.530;2023-04-01T03:14:22;8.50;99.90
46336;DHT22;31365;48.858;8.530;2023-04-01T03:16:51;8.60;99.90
46336;DHT22;31365;48.858;8.530;2023-04-01T03:19:20;8.60;99.90
46336;DHT22;31365;48.858;8.530;2023-04-01T03:21:50;8.60;99.90
46336;DHT22;31365;48.858;8.530;2023-04-01T03:24:20;8.60;99.90
46336;DHT22;31365;48.858;8.530;2023-04-01T03:26:50;8.60;99.90
46336;DHT22;31365;48.858;8.530;2023-04-01T03:29:20;8.60;99.90
46336;DHT22;31365;48.858;8.530;2023-04-01T03:31:50;8.70;99.90
46336;DHT22;31365;48.858;8.530;2023-04-01T03:34:40;8.70;99.90
46336;DHT22;31365;48.858;8.530;2023-04-01T03:37:09;8.80;99.90
46336;DHT22;31365;48.858;8.530;2023-04-01T03:39:40;8.80;99.90
46336;DHT22;31365;48.858;8.530;2023-04-01T03:42:11;8.90;99.90
46336;DHT22;31365;48.858;8.530;2023-04-01T03:44:40;8.80;99.90
46336;DHT22;31365;48.858;8.530;2023-04-01T03:47:10;8.80;99.90
46336;DHT22;31365;48.858;8.530;2023-04-01T03:49:40;8.90;99.90
46336;DHT22;31365;48.858;8.530;2023-04-01T03:52:10;8.80;99.90
46336;DHT22;31365;48.858;8.530;2023-04-01T03:54:42;8.90;99.90
46336;DHT22;31365;48.858;8.530;2023-04-01T03:57:12;8.90;99.90
46336;DHT22;31365;48.858;8.530;2023-04-01T03:59:42;8.90;99.90
46336;DHT22;31365;48.858;8.530;2023-04-01T04:02:11;8.90;99.90
46336;DHT22;31365;48.858;8.530;2023-04-01T04:04:42;9.00;99.90
46336;DHT22;31365;48.858;8.530;2023-04-01T04:07:11;9.00;99.90
46336;DHT22;31365;48.858;8.530;2023-04-01T04:10:01;9.00;99.90
46336;DHT22;31365;48.858;8.530;2023-04-01T04:12:29;9.00;99.90
46336;DHT22;31365;48.858;8.530;2023-04-01T04:14:58;9.00;99.90
46336;DHT22;31365;48.858;8.530;2023-04-01T04:17:30;9.00;99.90
46336;DHT22;31365;48.858;8.530;2023-04-01T04:19:59;9.00;99.90
46336;DHT22;31365;48.858;8.530;2023-04-01T04:22:29;8.90;99.90
46336;DHT22;31365;48.858;8.530;2023-04-01T04:25:01;8.90;99.90
46336;DHT22;31365;48.858;8.530;2023-04-01T04:27:33;9.00;99.90
46336;DHT22;31365;48.858;8.530;2023-04-01T04:30:08;9.00;99.90
46336;DHT22;31365;48.858;8.530;2023-04-01T04:32:38;9.00;99.90
46336;DHT22;31365;48.858;8.530;2023-04-01T04:35:10;9.00;99.90
46336;DHT22;31365;48.858;8.530;2023-04-01T04:37:39;9.00;99.90
46336;DHT22;31365;48.858;8.530;2023-04-01T04:40:11;9.00;99.90
46336;DHT22;31365;48.858;8.530;2023-04-01T04:42:42;9.00;99.90
46336;DHT22;31365;48.858;8.530;2023-04-01T04:45:14;9.00;99.90
46336;DHT22;31365;48.858;8.530;2023-04-01T04:47:52;8.90;99.90
46336;DHT22;31365;48.858;8.530;2023-04-01T04:50:21;8.90;99.90
46336;DHT22;31365;48.858;8.530;2023-04-01T04:52:52;8.90;99.90
46336;DHT22;31365;48.858;8.530;2023-04-01T04:55:23;8.90;99.90
46336;DHT22;31365;48.858;8.530;2023-04-01T04:58:12;8.90;99.90
46336;DHT22;31365;48.858;8.530;2023-04-01T05:00:43;9.00;99.90
46336;DHT22;31365;48.858;8.530;2023-04-01T05:03:21;9.00;99.90
46336;DHT22;31365;48.858;8.530;2023-04-01T05:05:52;9.00;99.90
46336;DHT22;31365;48.858;8.530;2023-04-01T05:08:22;9.00;99.90
46336;DHT22;31365;48.858;8.530;2023-04-01T05:10:55;9.00;99.90
46336;DHT22;31365;48.858;8.530;2023-04-01T05:13:25;9.00;99.90
46336;DHT22;31365;48.858;8.530;2023-04-01T05:15:55;9.00;99.90
46336;DHT22;31365;48.858;8.530;2023-04-01T05:18:24;9.00;99.90
46336;DHT22;31365;48.858;8.530;2023-04-01T05:20:55;9.00;99.90
46336;DHT22;31365;48.858;8.530;2023-04-01T05:23:23;9.00;99.90
46336;DHT22;31365;48.858;8.530;2023-04-01T05:25:53;9.10;99.90
46336;DHT22;31365;48.858;8.530;2023-04-01T05:28:24;9.10;99.90
46336;DHT22;31365;48.858;8.530;2023-04-01T05:30:54;9.10;99.90
46336;DHT22;31365;48.858;8.530;2023-04-01T05:33:46;9.10;99.90
46336;DHT22;31365;48.858;8.530;2023-04-01T05:36:16;9.10;99.90
46336;DHT22;31365;48.858;8.530;2023-04-01T05:38:45;9.10;99.90
46336;DHT22;31365;48.858;8.530;2023-04-01T05:41:18;9.10;99.90
46336;DHT22;31365;48.858;8.530;2023-04-01T05:43:47;9.00;99.90
46336;DHT22;31365;48.858;8.530;2023-04-01T05:46:35;9.00;99.90
46336;DHT22;31365;48.858;8.530;2023-04-01T05:49:17;9.00;99.90
46336;DHT22;31365;48.858;8.530;2023-04-01T05:51:47;8.90;99.90
46336;DHT22;31365;48.858;8.530;2023-04-01T05:54:17;8.90;99.90
46336;DHT22;31365;48.858;8.530;2023-04-01T05:56:47;8.80;99.90
46336;DHT22;31365;48.858;8.530;2023-04-01T05:59:18;8.80;99.90
46336;DHT22;31365;48.858;8.530;2023-04-01T06:01:48;8.70;99.90
46336;DHT22;31365;48.858;8.530;2023-04-01T06:04:17;8.70;99.90
46336;DHT22;31365;48.858;8.530;2023-04-01T06:06:47;8.70;99.90
46336;DHT22;31365;48.858;8.530;2023-04-01T06:09:18;8.70;99.90
46336;DHT22;31365;48.858;8.530;2023-04-01T06:12:15;8.70;99.90
46336;DHT22;31365;48.858;8.530;2023-04-01T06:15:03;8.60;99.90
46336;DHT22;31365;48.858;8.530;2023-04-01T06:17:52;8.60;99.90
46336;DHT22;31365;48.858;8.530;2023-04-01T06:20:41;8.50;99.90
46336;DHT22;31365;48.858;8.530;2023-04-01T06:23:28;8.50;99.90
46336;DHT22;31365;48.858;8.530;2023-04-01T06:26:16;8.50;99.90
46336;DHT22;31365;48.858;8.530;2023-04-01T06:29:19;8.50;99.90
46336;DHT22;31365;48.858;8.530;2023-04-01T06:32:14;8.50;99.90
46336;DHT22;31365;48.858;8.530;2023-04-01T06:35:17;8.50;99.90
46336;DHT22;31365;48.858;8.530;2023-04-01T06:41:21;8.50;99.90
46336;DHT22;31365;48.858;8.530;2023-04-01T06:44:16;8.50;99.90
46336;DHT22;31365;48.858;8.530;2023-04-01T06:47:25;8.50;99.90
46336;DHT22;31365;48.858;8.530;2023-04-01T06:50:28;8.40;99.90
46336;DHT22;31365;48.858;8.530;2023-04-01T06:53:33;8.30;99.90
46336;DHT22;31365;48.858;8.530;2023-04-01T06:56:46;8.30;99.90
46336;DHT22;31365;48.858;8.530;2023-04-01T06:59:26;8.30;99.90
46336;DHT22;31365;48.858;8.530;2023-04-01T07:02:02;8.30;99.90
46336;DHT22;31365;48.858;8.530;2023-04-01T07:04:44;8.30;99.90
46336;DHT22;31365;48.858;8.530;2023-04-01T07:07:31;8.40;99.90
46336;DHT22;31365;48.858;8.530;2023-04-01T07:10:11;8.40;99.90
46336;DHT22;31365;48.858;8.530;2023-04-01T07:13:07;8.40;99.90
46336;DHT22;31365;48.858;8.530;2023-04-01T07:16:11;8.40;99.90
46336;DHT22;31365;48.858;8.530;2023-04-01T07:18:46;8.40;99.90
46336;DHT22;31365;48.858;8.530;2023-04-01T07:21:27;8.30;99.90
46336;DHT22;31365;48.858;8.530;2023-04-01T07:24:17;8.40;99.90
46336;DHT22;31365;48.858;8.530;2023-04-01T07:27:05;8.50;99.90
46336;DHT22;31365;48.858;8.530;2023-04-01T07:29:39;8.50;99.90
46336;DHT22;31365;48.858;8.530;2023-04-01T07:32:19;8.60;99.90
46336;DHT22;31365;48.858;8.530;2023-04-01T07:35:04;8.60;99.90
46336;DHT22;31365;48.858;8.530;2023-04-01T07:37:52;8.70;99.90
46336;DHT22;31365;48.858;8.530;2023-04-01T07:40:41;8.70;99.90
46336;DHT22;31365;48.858;8.530;2023-04-01T07:43:35;8.60;99.90
46336;DHT22;31365;48.858;8.530;2023-04-01T07:46:44;8.60;99.90
46336;DHT22;31365;48.858;8.530;2023-04-01T07:49:30;8.60;99.90
46336;DHT22;31365;48.858;8.530;2023-04-01T07:52:13;8.60;99.90
46336;DHT22;31365;48.858;8.530;2023-04-01T07:54:59;8.60;99.90
46336;DHT22;31365;48.858;8.530;2023-04-01T07:57:45;8.50;99.90
46336;DHT22;31365;48.858;8.530;2023-04-01T08:00:24;8.40;99.90
46336;DHT22;31365;48.858;8.530;2023-04-01T08:03:31;8.40;99.90
46336;DHT22;31365;48.858;8.530;2023-04-01T08:06:14;8.30;99.90
46336;DHT22;31365;48.858;8.530;2023-04-01T08:08:59;8.20;99.90
46336;DHT22;31365;48.858;8.530;2023-04-01T08:12:04;8.20;99.90
46336;DHT22;31365;48.858;8.530;2023-04-01T08:15:08;8.10;99.90
46336;DHT22;31365;48.858;8.530;2023-04-01T08:18:13;8.10;99.90
46336;DHT22;31365;48.858;8.530;2023-04-01T08:20:53;8.20;99.90
46336;DHT22;31365;48.858;8.530;2023-04-01T08:23:31;8.30;99.90
46336;DHT22;31365;48.858;8.530;2023-04-01T08:26:10;8.40;99.90
46336;DHT22;31365;48.858;8.530;2023-04-01T08:28:51;8.50;99.90
46336;DHT22;31365;48.858;8.530;2023-04-01T08:31:29;8.60;99.90
46336;DHT22;31365;48.858;8.530;2023-04-01T08:34:05;8.70;99.90
46336;DHT22;31365;48.858;8.530;2023-04-01T08:36:47;8.70;99.90
46336;DHT22;31365;48.858;8.530;2023-04-01T08:39:29;8.70;99.90
46336;DHT22;31365;48.858;8.530;2023-04-01T08:45:31;9.00;99.90
46336;DHT22;31365;48.858;8.530;2023-04-01T08:48:42;9.30;99.90
46336;DHT22;31365;48.858;8.530;2023-04-01T08:51:51;9.40;99.90
46336;DHT22;31365;48.858;8.530;2023-04-01T08:55:00;9.50;99.90
46336;DHT22;31365;48.858;8.530;2023-04-01T08:58:14;9.40;99.90
46336;DHT22;31365;48.858;8.530;2023-04-01T09:01:26;9.30;99.90
46336;DHT22;31365;48.858;8.530;2023-04-01T09:04:26;9.20;99.90
46336;DHT22;31365;48.858;8.530;2023-04-01T09:07:17;9.20;99.90
46336;DHT22;31365;48.858;8.530;2023-04-01T09:10:25;9.20;99.90
46336;DHT22;31365;48.858;8.530;2023-04-01T09:13:56;9.20;99.90
46336;DHT22;31365;48.858;8.530;2023-04-01T09:17:12;9.20;99.90
46336;DHT22;31365;48.858;8.530;2023-04-01T09:20:24;9.10;99.90
46336;DHT22;31365;48.858;8.530;2023-04-01T09:23:21;9.20;99.90
46336;DHT22;31365;48.858;8.530;2023-04-01T09:26:35;9.30;99.90
46336;DHT22;31365;48.858;8.530;2023-04-01T09:29:31;9.20;99.90
46336;DHT22;31365;48.858;8.530;2023-04-01T09:32:48;9.30;99.90
46336;DHT22;31365;48.858;8.530;2023-04-01T09:35:46;9.30;99.90
46336;DHT22;31365;48.858;8.530;2023-04-01T09:38:29;9.20;99.90
46336;DHT22;31365;48.858;8.530;2023-04-01T09:41:21;9.40;99.90
46336;DHT22;31365;48.858;8.530;2023-04-01T09:44:10;9.50;99.90
46336;DHT22;31365;48.858;8.530;2023-04-01T09:47:13;9.70;99.90
46336;DHT22;31365;48.858;8.530;2023-04-01T09:50:14;9.90;99.90
46336;DHT22;31365;48.858;8.530;2023-04-01T09:53:05;9.70;99.90
46336;DHT22;31365;48.858;8.530;2023-04-01T10:00:24;9.80;99.90
46336;DHT22;31365;48.858;8.530;2023-04-01T10:10:30;9.90;99.90
46336;DHT22;31365;48.858;8.530;2023-04-01T10:13:43;9.80;99.90
46336;DHT22;31365;48.858;8.530;2023-04-01T10:17:07;9.80;99.90
46336;DHT22;31365;48.858;8.530;2023-04-01T10:23:21;9.70;99.90
46336;DHT22;31365;48.858;8.530;2023-04-01T10:36:52;10.20;99.90
46336;DHT22;31365;48.858;8.530;2023-04-01T10:40:13;10.30;99.90
46336;DHT22;31365;48.858;8.530;2023-04-01T10:43:50;10.40;99.90
46336;DHT22;31365;48.858;8.530;2023-04-01T10:47:02;10.60;99.90
46336;DHT22;31365;48.858;8.530;2023-04-01T10:50:21;10.40;99.90
46336;DHT22;31365;48.858;8.530;2023-04-01T10:53:27;10.40;99.90
46336;DHT22;31365;48.858;8.530;2023-04-01T10:56:46;10.40;99.90
46336;DHT22;31365;48.858;8.530;2023-04-01T11:03:48;10.40;99.90
46336;DHT22;31365;48.858;8.530;2023-04-01T11:07:44;10.20;99.90
46336;DHT22;31365;48.858;8.530;2023-04-01T11:11:04;10.10;99.90
46336;DHT22;31365;48.858;8.530;2023-04-01T11:21:42;10.20;99.90
46336;DHT22;31365;48.858;8.530;2023-04-01T11:24:53;10.20;99.90
46336;DHT22;31365;48.858;8.530;2023-04-01T11:28:25;10.10;99.90
46336;DHT22;31365;48.858;8.530;2023-04-01T11:31:28;10.20;99.90
46336;DHT22;31365;48.858;8.530;2023-04-01T11:34:13;10.10;99.90
46336;DHT22;31365;48.858;8.530;2023-04-01T11:37:02;10.10;99.90
46336;DHT22;31365;48.858;8.530;2023-04-01T11:40:05;10.00;99.90
46336;DHT22;31365;48.858;8.530;2023-04-01T11:43:08;10.10;99.90
46336;DHT22;31365;48.858;8.530;2023-04-01T11:46:20;10.30;99.90
46336;DHT22;31365;48.858;8.530;2023-04-01T11:49:06;10.20;99.90
46336;DHT22;31365;48.858;8.530;2023-04-01T11:52:16;10.10;99.90
46336;DHT22;31365;48.858;8.530;2023-04-01T11:55:15;10.20;99.90
46336;DHT22;31365;48.858;8.530;2023-04-01T11:58:05;10.20;99.90
46336;DHT22;31365;48.858;8.530;2023-04-01T12:04:06;10.30;99.90
46336;DHT22;31365;48.858;8.530;2023-04-01T12:07:03;10.30;99.90
46336;DHT22;31365;48.858;8.530;2023-04-01T12:09:52;10.30;99.90
46336;DHT22;31365;48.858;8.530;2023-04-01T12:12:36;10.40;99.90
46336;DHT22;31365;48.858;8.530;2023-04-01T12:15:29;10.20;99.90
46336;DHT22;31365;48.858;8.530;2023-04-01T12:18:13;10.10;99.90
46336;DHT22;31365;48.858;8.530;2023-04-01T12:20:50;10.10;99.90
46336;DHT22;31365;48.858;8.530;2023-04-01T12:23:51;10.10;99.90
46336;DHT22;31365;48.858;8.530;2023-04-01T12:27:05;10.20;99.90
46336;DHT22;31365;48.858;8.530;2023-04-01T12:33:44;10.10;99.90
46336;DHT22;31365;48.858;8.530;2023-04-01T12:36:35;10.10;99.90
46336;DHT22;31365;48.858;8.530;2023-04-01T12:42:36;10.20;99.90
46336;DHT22;31365;48.858;8.530;2023-04-01T12:45:27;10.40;99.90
46336;DHT22;31365;48.858;8.530;2023-04-01T12:48:20;10.40;99.90
46336;DHT22;31365;48.858;8.530;2023-04-01T12:58:02;9.70;99.90
46336;DHT22;31365;48.858;8.530;2023-04-01T13:00:56;9.50;99.90
46336;DHT22;31365;48.858;8.530;2023-04-01T13:03:51;9.50;99.90
46336;DHT22;31365;48.858;8.530;2023-04-01T13:07:14;9.40;99.90
46336;DHT22;31365;48.858;8.530;2023-04-01T13:10:07;9.50;99.90
46336;DHT22;31365;48.858;8.530;2023-04-01T13:15:58;9.60;99.90
46336;DHT22;31365;48.858;8.530;2023-04-01T13:18:38;9.60;99.90
46336;DHT22;31365;48.858;8.530;2023-04-01T13:21:31;9.60;99.90
46336;DHT22;31365;48.858;8.530;2023-04-01T13:24:23;9.80;99.90
46336;DHT22;31365;48.858;8.530;2023-04-01T13:27:02;9.90;99.90
46336;DHT22;31365;48.858;8.530;2023-04-01T13:29:41;9.90;99.90
46336;DHT22;31365;48.858;8.530;2023-04-01T13:32:23;9.90;99.90
46336;DHT22;31365;48.858;8.530;2023-04-01T13:35:25;9.90;99.90
46336;DHT22;31365;48.858;8.530;2023-04-01T13:38:17;9.70;99.90
46336;DHT22;31365;48.858;8.530;2023-04-01T13:41:03;9.60;99.90
46336;DHT22;31365;48.858;8.530;2023-04-01T13:43:43;9.50;99.90
46336;DHT22;31365;48.858;8.530;2023-04-01T13:46:40;9.70;99.90
46336;DHT22;31365;48.858;8.530;2023-04-01T13:52:52;10.00;99.90
46336;DHT22;31365;48.858;8.530;2023-04-01T13:56:04;10.20;99.90
46336;DHT22;31365;48.858;8.530;2023-04-01T13:59:04;10.60;99.90
46336;DHT22;31365;48.858;8.530;2023-04-01T14:01:48;10.80;99.90
46336;DHT22;31365;48.858;8.530;2023-04-01T14:04:42;10.70;99.90
46336;DHT22;31365;48.858;8.530;2023-04-01T14:07:41;10.70;99.90
46336;DHT22;31365;48.858;8.530;2023-04-01T14:10:31;10.80;99.90
46336;DHT22;31365;48.858;8.530;2023-04-01T14:13:07;10.90;99.90
46336;DHT22;31365;48.858;8.530;2023-04-01T14:16:02;11.40;99.90
46336;DHT22;31365;48.858;8.530;2023-04-01T14:19:11;11.50;99.90
46336;DHT22;31365;48.858;8.530;2023-04-01T14:21:58;11.60;99.90
46336;DHT22;31365;48.858;8.530;2023-04-01T14:25:10;11.50;99.90
46336;DHT22;31365;48.858;8.530;2023-04-01T14:28:09;11.30;99.90
46336;DHT22;31365;48.858;8.530;2023-04-01T14:31:04;11.50;99.90
46336;DHT22;31365;48.858;8.530;2023-04-01T14:34:06;11.50;99.90
46336;DHT22;31365;48.858;8.530;2023-04-01T14:37:01;11.50;99.90
46336;DHT22;31365;48.858;8.530;2023-04-01T14:39:49;11.30;99.90
46336;DHT22;31365;48.858;8.530;2023-04-01T14:43:19;11.00;99.90
46336;DHT22;31365;48.858;8.530;2023-04-01T14:46:23;10.80;99.90
46336;DHT22;31365;48.858;8.530;2023-04-01T14:49:13;10.70;99.90
46336;DHT22;31365;48.858;8.530;2023-04-01T14:51:46;11.10;99.90
46336;DHT22;31365;48.858;8.530;2023-04-01T14:54:17;11.20;99.90
46336;DHT22;31365;48.858;8.530;2023-04-01T14:57:01;11.40;99.90
46336;DHT22;31365;48.858;8.530;2023-04-01T14:59:41;11.30;99.90
46336;DHT22;31365;48.858;8.530;2023-04-01T15:02:27;11.40;99.90
46336;DHT22;31365;48.858;8.530;2023-04-01T15:05:16;11.40;99.90
46336;DHT22;31365;48.858;8.530;2023-04-01T15:08:08;11.20;99.90
46336;DHT22;31365;48.858;8.530;2023-04-01T15:10:52;11.10;99.90
46336;DHT22;31365;48.858;8.530;2023-04-01T15:13:46;11.10;99.90
46336;DHT22;31365;48.858;8.530;2023-04-01T15:16:44;11.20;99.90
46336;DHT22;31365;48.858;8.530;2023-04-01T15:19:28;11.30;99.90
46336;DHT22;31365;48.858;8.530;2023-04-01T15:22:25;11.10;99.90
46336;DHT22;31365;48.858;8.530;2023-04-01T15:25:30;11.00;99.90
46336;DHT22;31365;48.858;8.530;2023-04-01T15:28:14;11.10;99.90
46336;DHT22;31365;48.858;8.530;2023-04-01T15:30:55;11.10;99.90
46336;DHT22;31365;48.858;8.530;2023-04-01T15:33:39;11.10;99.90
46336;DHT22;31365;48.858;8.530;2023-04-01T15:36:33;10.90;99.90
46336;DHT22;31365;48.858;8.530;2023-04-01T15:39:16;11.00;99.90
46336;DHT22;31365;48.858;8.530;2023-04-01T15:45:08;11.00;99.90
46336;DHT22;31365;48.858;8.530;2023-04-01T15:47:48;10.90;99.90
46336;DHT22;31365;48.858;8.530;2023-04-01T15:50:49;10.90;99.90
46336;DHT22;31365;48.858;8.530;2023-04-01T15:56:36;10.60;99.90
46336;DHT22;31365;48.858;8.530;2023-04-01T15:59:42;10.40;99.90
46336;DHT22;31365;48.858;8.530;2023-04-01T16:02:31;10.30;99.90
46336;DHT22;31365;48.858;8.530;2023-04-01T16:05:13;10.20;99.90
46336;DHT22;31365;48.858;8.530;2023-04-01T16:08:07;10.10;99.90
46336;DHT22;31365;48.858;8.530;2023-04-01T16:10:57;10.10;99.90
46336;DHT22;31365;48.858;8.530;2023-04-01T16:13:46;10.00;99.90
46336;DHT22;31365;48.858;8.530;2023-04-01T16:16:35;10.10;99.90
46336;DHT22;31365;48.858;8.530;2023-04-01T16:19:37;10.10;99.90
46336;DHT22;31365;48.858;8.530;2023-04-01T16:22:14;10.30;99.90
46336;DHT22;31365;48.858;8.530;2023-04-01T16:24:53;10.40;99.90
46336;DHT22;31365;48.858;8.530;2023-04-01T16:27:46;10.60;99.90
46336;DHT22;31365;48.858;8.530;2023-04-01T16:30:36;10.60;99.90
46336;DHT22;31365;48.858;8.530;2023-04-01T16:33:14;10.50;99.90
46336;DHT22;31365;48.858;8.530;2023-04-01T16:35:55;10.50;99.90
46336;DHT22;31365;48.858;8.530;2023-04-01T16:38:39;10.50;99.90
46336;DHT22;31365;48.858;8.530;2023-04-01T16:41:16;10.50;99.90
46336;DHT22;31365;48.858;8.530;2023-04-01T16:43:49;10.50;99.90
46336;DHT22;31365;48.858;8.530;2023-04-01T16:46:31;10.30;99.90
46336;DHT22;31365;48.858;8.530;2023-04-01T16:49:29;10.20;99.90
46336;DHT22;31365;48.858;8.530;2023-04-01T16:52:29;10.10;99.90
46336;DHT22;31365;48.858;8.530;2023-04-01T16:55:06;10.10;99.90
46336;DHT22;31365;48.858;8.530;2023-04-01T16:57:48;10.00;99.90
46336;DHT22;31365;48.858;8.530;2023-04-01T17:00:26;9.90;99.90
46336;DHT22;31365;48.858;8.530;2023-04-01T17:03:04;9.90;99.90
46336;DHT22;31365;48.858;8.530;2023-04-01T17:06:12;9.80;99.90
46336;DHT22;31365;48.858;8.530;2023-04-01T17:09:08;9.70;99.90
46336;DHT22;31365;48.858;8.530;2023-04-01T17:12:04;9.60;99.90
46336;DHT22;31365;48.858;8.530;2023-04-01T17:14:46;9.50;99.90
46336;DHT22;31365;48.858;8.530;2023-04-01T17:17:37;9.30;99.90
46336;DHT22;31365;48.858;8.530;2023-04-01T17:20:41;9.20;99.90
46336;DHT22;31365;48.858;8.530;2023-04-01T17:23:18;9.10;99.90
46336;DHT22;31365;48.858;8.530;2023-04-01T17:26:06;9.00;99.90
46336;DHT22;31365;48.858;8.530;2023-04-01T17:29:00;9.00;99.90
46336;DHT22;31365;48.858;8.530;2023-04-01T17:31:49;8.90;99.90
46336;DHT22;31365;48.858;8.530;2023-04-01T17:34:39;8.90;99.90
46336;DHT22;31365;48.858;8.530;2023-04-01T17:54:45;8.90;99.90
46336;DHT22;31365;48.858;8.530;2023-04-01T17:57:33;8.80;99.90
46336;DHT22;31365;48.858;8.530;2023-04-01T18:00:21;8.80;99.90
46336;DHT22;31365;48.858;8.530;2023-04-01T18:03:23;8.70;99.90
46336;DHT22;31365;48.858;8.530;2023-04-01T18:06:08;8.70;99.90
46336;DHT22;31365;48.858;8.530;2023-04-01T18:08:55;8.60;99.90
46336;DHT22;31365;48.858;8.530;2023-04-01T18:11:44;8.50;99.90
46336;DHT22;31365;48.858;8.530;2023-04-01T18:14:44;8.50;99.90
46336;DHT22;31365;48.858;8.530;2023-04-01T18:17:24;8.40;99.90
46336;DHT22;31365;48.858;8.530;2023-04-01T18:20:07;8.40;99.90
46336;DHT22;31365;48.858;8.530;2023-04-01T18:22:56;8.30;99.90
46336;DHT22;31365;48.858;8.530;2023-04-01T18:25:33;8.30;99.90
46336;DHT22;31365;48.858;8.530;2023-04-01T18:28:30;8.20;99.90
46336;DHT22;31365;48.858;8.530;2023-04-01T18:31:07;8.20;99.90
46336;DHT22;31365;48.858;8.530;2023-04-01T18:33:50;8.20;99.90
46336;DHT22;31365;48.858;8.530;2023-04-01T18:36:38;8.20;99.90
46336;DHT22;31365;48.858;8.530;2023-04-01T18:39:16;8.20;99.90
46336;DHT22;31365;48.858;8.530;2023-04-01T18:41:55;8.20;99.90
46336;DHT22;31365;48.858;8.530;2023-04-01T18:44:42;8.20;99.90
46336;DHT22;31365;48.858;8.530;2023-04-01T18:47:24;8.20;99.90
46336;DHT22;31365;48.858;8.530;2023-04-01T18:50:14;8.20;99.90
46336;DHT22;31365;48.858;8.530;2023-04-01T18:52:54;8.30;99.90
46336;DHT22;31365;48.858;8.530;2023-04-01T18:55:32;8.30;99.90
46336;DHT22;31365;48.858;8.530;2023-04-01T18:58:17;8.30;99.90
46336;DHT22;31365;48.858;8.530;2023-04-01T19:01:18;8.30;99.90
46336;DHT22;31365;48.858;8.530;2023-04-01T19:04:00;8.40;99.90
46336;DHT22;31365;48.858;8.530;2023-04-01T19:06:44;8.50;99.90
46336;DHT22;31365;48.858;8.530;2023-04-01T19:09:24;8.50;99.90
46336;DHT22;31365;48.858;8.530;2023-04-01T19:12:28;8.50;99.90
46336;DHT22;31365;48.858;8.530;2023-04-01T19:15:23;8.50;99.90
46336;DHT22;31365;48.858;8.530;2023-04-01T19:21:16;8.50;99.90
46336;DHT22;31365;48.858;8.530;2023-04-01T19:24:07;8.50;99.90
46336;DHT22;31365;48.858;8.530;2023-04-01T19:26:56;8.50;99.90
46336;DHT22;31365;48.858;8.530;2023-04-01T19:29:49;8.60;99.90